Time;durP1;ratioP1;P1;durP2;ratioP2;P2;SDS_P1;SDS_P2;PMS_P1;PMS_P2;Temp;Humidity;BMP_temperature;BMP_pressure;BME280_temperature;BME280_humidity;BME280_pressure;Samples;Min_cycle;Max_cycle;Signal;HPM_P1;HPM_P2
2022/06/06 00:00:40;;;;;;;79.22;33.22;;;;;;;;;;6205493;23;20039;-68
2022/06/06 00:03:07;;;;;;;78.15;31.33;;;;;;;;;;6211078;23;20103;-69
2022/06/06 00:05:33;;;;;;;69.57;32.08;;;;;;;;;;6207064;23;20866;-67
2022/06/06 00:07:59;;;;;;;53.35;26.20;;;;;;;;;;6197800;23;20051;-66
2022/06/06 00:10:25;;;;;;;53.95;26.23;;;;;;;;;;6211526;23;20029;-67
2022/06/06 00:12:52;;;;;;;43.65;24.17;;;;;;;;;;6205180;23;20517;-67
2022/06/06 00:15:18;;;;;;;44.60;24.33;;;;;;;;;;6211738;23;20027;-67
2022/06/06 00:17:44;;;;;;;47.00;24.85;;;;;;;;;;6204887;23;20031;-67
2022/06/06 00:20:11;;;;;;;41.63;22.55;;;;;;;;;;6206206;23;20099;-67
2022/06/06 00:22:37;;;;;;;39.20;21.83;;;;;;;;;;6205810;23;20095;-67
2022/06/06 00:25:04;;;;;;;43.10;22.25;;;;;;;;;;6205761;23;20052;-68
2022/06/06 00:27:30;;;;;;;38.13;20.42;;;;;;;;;;6212462;23;20394;-67
2022/06/06 00:29:57;;;;;;;36.72;20.08;;;;;;;;;;6203797;23;20387;-67
2022/06/06 00:35:08;;;;;;;31.08;18.83;;;;;;;;;;6196645;23;20059;-68
2022/06/06 00:37:35;;;;;;;37.10;19.52;;;;;;;;;;6209143;23;20056;-67
2022/06/06 00:40:02;;;;;;;34.40;18.35;;;;;;;;;;6186254;23;20032;-67
2022/06/06 00:42:33;;;;;;;37.40;19.55;;;;;;;;;;6204270;23;20095;-67
2022/06/06 00:45:21;;;;;;;38.15;20.83;;;;;;;;;;6185770;23;20349;-67
2022/06/06 00:47:50;;;;;;;40.35;18.65;;;;;;;;;;6199187;23;20097;-66
2022/06/06 00:50:18;;;;;;;46.20;21.98;;;;;;;;;;6205814;23;20100;-67
2022/06/06 00:52:45;;;;;;;44.83;21.35;;;;;;;;;;6203815;22;20072;-67
2022/06/06 00:55:15;;;;;;;41.35;21.50;;;;;;;;;;6212498;23;20072;-67
2022/06/06 00:57:46;;;;;;;43.83;21.17;;;;;;;;;;6205872;23;20096;-67
2022/06/06 01:00:15;;;;;;;42.60;20.80;;;;;;;;;;6211429;23;20099;-68
2022/06/06 01:02:43;;;;;;;41.47;19.90;;;;;;;;;;6206984;23;20044;-67
2022/06/06 01:05:09;;;;;;;42.85;21.23;;;;;;;;;;6199530;23;20389;-67
2022/06/06 01:07:36;;;;;;;37.88;19.45;;;;;;;;;;6212229;23;20070;-68
2022/06/06 01:10:03;;;;;;;41.05;19.58;;;;;;;;;;6205120;22;20063;-67
2022/06/06 01:12:31;;;;;;;38.22;19.38;;;;;;;;;;6211430;23;20099;-68
2022/06/06 01:15:00;;;;;;;36.38;18.42;;;;;;;;;;6204380;22;20045;-68
2022/06/06 01:17:38;;;;;;;37.05;18.35;;;;;;;;;;6202574;23;20123;-68
2022/06/06 01:20:16;;;;;;;31.73;17.42;;;;;;;;;;6211822;23;20020;-67
2022/06/06 01:22:42;;;;;;;35.85;18.30;;;;;;;;;;6203188;23;20096;-67
2022/06/06 01:25:21;;;;;;;32.92;17.15;;;;;;;;;;6212590;23;20020;-68
2022/06/06 01:27:59;;;;;;;37.47;18.65;;;;;;;;;;6204802;23;20501;-68
2022/06/06 01:30:29;;;;;;;33.70;17.83;;;;;;;;;;6205609;23;20031;-67
2022/06/06 01:32:56;;;;;;;39.38;18.35;;;;;;;;;;6198871;23;20365;-68
2022/06/06 01:35:37;;;;;;;41.60;20.38;;;;;;;;;;6211796;23;20450;-67
2022/06/06 01:38:03;;;;;;;42.88;19.75;;;;;;;;;;6204645;23;20398;-67
2022/06/06 01:40:38;;;;;;;39.35;19.83;;;;;;;;;;6211954;23;20099;-67
2022/06/06 01:43:08;;;;;;;42.50;20.23;;;;;;;;;;6212855;23;20103;-68
2022/06/06 01:45:44;;;;;;;47.42;21.42;;;;;;;;;;6206455;23;20461;-67
2022/06/06 01:48:19;;;;;;;44.38;20.38;;;;;;;;;;6213504;23;20032;-68
2022/06/06 01:50:45;;;;;;;41.38;19.45;;;;;;;;;;6206125;22;20548;-68
2022/06/06 01:53:16;;;;;;;38.38;19.58;;;;;;;;;;6212610;23;20024;-67
2022/06/06 01:55:43;;;;;;;43.17;19.15;;;;;;;;;;6196973;22;20027;-67
2022/06/06 01:58:11;;;;;;;43.88;19.55;;;;;;;;;;6213283;23;20055;-67
2022/06/06 02:00:38;;;;;;;43.25;20.13;;;;;;;;;;6207603;23;20051;-67
2022/06/06 02:03:05;;;;;;;43.65;20.77;;;;;;;;;;6212777;23;20454;-67
2022/06/06 02:05:31;;;;;;;38.53;20.05;;;;;;;;;;6213536;23;20021;-67
2022/06/06 02:07:58;;;;;;;40.65;19.73;;;;;;;;;;6200121;23;20106;-67
2022/06/06 02:10:25;;;;;;;43.22;20.60;;;;;;;;;;6207593;23;20095;-68
2022/06/06 02:12:51;;;;;;;40.88;19.92;;;;;;;;;;6205891;23;20096;-67
2022/06/06 02:15:20;;;;;;;44.78;20.08;;;;;;;;;;6212839;23;20103;-67
2022/06/06 02:17:46;;;;;;;;;;;;;;;;;;6206829;22;20107;-67
2022/06/06 02:20:13;;;;;;;42.10;21.33;;;;;;;;;;6212073;23;19962;-67
2022/06/06 02:22:40;;;;;;;48.77;22.30;;;;;;;;;;6206199;23;20103;-67
2022/06/06 02:25:07;;;;;;;46.33;22.33;;;;;;;;;;6201193;23;20051;-67
2022/06/06 02:27:34;;;;;;;49.45;22.23;;;;;;;;;;6213948;23;20028;-67
2022/06/06 02:30:02;;;;;;;48.88;21.70;;;;;;;;;;6204934;22;20037;-67
2022/06/06 02:32:28;;;;;;;46.17;23.77;;;;;;;;;;6213040;23;20567;-68
2022/06/06 02:34:55;;;;;;;50.72;23.27;;;;;;;;;;6203711;23;20102;-66
2022/06/06 02:37:21;;;;;;;48.92;22.27;;;;;;;;;;6203437;23;20097;-67
2022/06/06 02:39:48;;;;;;;51.88;22.95;;;;;;;;;;6212970;23;20482;-69
2022/06/06 02:42:14;;;;;;;47.70;23.23;;;;;;;;;;6178509;23;20103;-66
2022/06/06 02:44:40;;;;;;;49.63;23.35;;;;;;;;;;6212456;23;20071;-67
2022/06/06 02:47:07;;;;;;;50.42;22.33;;;;;;;;;;6206113;23;20509;-67
2022/06/06 02:49:33;;;;;;;42.53;21.58;;;;;;;;;;6208376;23;20095;-67
2022/06/06 02:52:00;;;;;;;46.25;21.50;;;;;;;;;;6199308;23;20421;-66
2022/06/06 02:54:27;;;;;;;44.78;21.85;;;;;;;;;;6212218;23;20517;-66
2022/06/06 02:56:53;;;;;;;45.22;21.33;;;;;;;;;;6213168;23;20096;-68
2022/06/06 02:59:19;;;;;;;46.80;20.52;;;;;;;;;;6206512;23;20103;-67
2022/06/06 03:01:46;;;;;;;46.80;20.67;;;;;;;;;;6212760;23;20099;-67
2022/06/06 03:04:12;;;;;;;45.63;20.52;;;;;;;;;;6199913;23;20021;-68
2022/06/06 03:06:58;;;;;;;41.85;21.10;;;;;;;;;;6207016;23;20066;-67
2022/06/06 03:09:42;;;;;;;52.72;21.73;;;;;;;;;;6204407;22;20059;-68
2022/06/06 03:12:16;;;;;;;50.30;22.23;;;;;;;;;;6213126;23;20021;-67
2022/06/06 03:14:52;;;;;;;41.50;19.52;;;;;;;;;;6206503;23;20067;-68
2022/06/06 03:23:39;;;;;;;46.30;22.75;;;;;;;;;;6120756;23;20053;-67
2022/06/06 03:26:26;;;;;;;42.40;20.45;;;;;;;;;;6113436;23;20552;-67
2022/06/06 03:28:58;;;;;;;45.50;21.83;;;;;;;;;;6110238;23;20375;-68
2022/06/06 03:31:45;;;;;;;48.28;20.50;;;;;;;;;;6115416;23;20299;-67
2022/06/06 03:34:24;;;;;;;42.63;20.80;;;;;;;;;;6114951;23;20436;-67
2022/06/06 03:37:01;;;;;;;36.72;19.23;;;;;;;;;;6119985;23;20029;-67
2022/06/06 03:39:33;;;;;;;39.38;19.65;;;;;;;;;;6113128;23;20096;-67
2022/06/06 03:42:02;;;;;;;36.72;18.25;;;;;;;;;;6119965;23;20097;-67
2022/06/06 03:44:31;;;;;;;36.13;19.55;;;;;;;;;;6088147;23;20069;-67
2022/06/06 03:46:58;;;;;;;36.42;18.30;;;;;;;;;;6115676;23;20116;-67
2022/06/06 03:49:24;;;;;;;32.10;17.10;;;;;;;;;;6112828;23;20093;-67
2022/06/06 03:52:04;;;;;;;36.67;17.63;;;;;;;;;;6120219;23;20506;-66
2022/06/06 03:54:53;;;;;;;30.80;16.55;;;;;;;;;;6113424;23;20141;-67
2022/06/06 03:57:23;;;;;;;33.47;16.63;;;;;;;;;;6160176;23;20024;-67
2022/06/06 03:59:56;;;;;;;33.47;16.98;;;;;;;;;;6212910;23;20127;-67
2022/06/06 04:02:34;;;;;;;31.98;17.33;;;;;;;;;;6211814;23;20017;-67
2022/06/06 04:05:02;;;;;;;31.10;16.45;;;;;;;;;;6213462;23;20024;-67
2022/06/06 04:07:28;;;;;;;31.58;15.25;;;;;;;;;;6203444;23;20025;-67
2022/06/06 04:09:55;;;;;;;28.05;15.60;;;;;;;;;;6204901;23;20116;-66
2022/06/06 04:12:39;;;;;;;32.70;15.85;;;;;;;;;;6204790;23;20099;-70
2022/06/06 04:15:09;;;;;;;34.08;17.23;;;;;;;;;;6212744;23;20055;-67
2022/06/06 04:17:43;;;;;;;37.92;19.50;;;;;;;;;;6206577;23;20056;-67
2022/06/06 04:20:31;;;;;;;37.90;19.15;;;;;;;;;;6212596;23;20099;-67
2022/06/06 04:23:00;;;;;;;41.80;22.83;;;;;;;;;;6199788;22;20024;-67
2022/06/06 04:25:27;;;;;;;41.63;22.55;;;;;;;;;;6207231;23;20481;-67
2022/06/06 04:27:58;;;;;;;46.78;24.27;;;;;;;;;;6213055;23;20615;-66
2022/06/06 04:30:27;;;;;;;50.45;25.45;;;;;;;;;;6204337;23;20029;-66
2022/06/06 04:32:59;;;;;;;49.65;25.63;;;;;;;;;;6212723;23;20107;-68
2022/06/06 04:35:28;;;;;;;55.08;27.27;;;;;;;;;;6202424;23;20099;-67
2022/06/06 04:38:09;;;;;;;59.42;27.70;;;;;;;;;;6203775;23;20221;-67
2022/06/06 04:40:49;;;;;;;52.00;26.15;;;;;;;;;;6205426;23;20096;-66
2022/06/06 04:43:27;;;;;;;47.45;25.17;;;;;;;;;;6212390;23;20092;-66
2022/06/06 04:45:53;;;;;;;;;;;;;;;;;;6205455;23;21214;-67
2022/06/06 04:48:21;;;;;;;42.88;23.85;;;;;;;;;;6212043;23;20299;-67
2022/06/06 04:50:55;;;;;;;41.47;23.58;;;;;;;;;;6207309;23;20446;-68
2022/06/06 04:53:22;;;;;;;38.08;22.60;;;;;;;;;;6197923;22;20103;-66
2022/06/06 04:55:50;;;;;;;41.40;23.48;;;;;;;;;;6212114;23;20092;-68
2022/06/06 04:58:17;;;;;;;38.40;21.70;;;;;;;;;;6204857;23;20044;-67
2022/06/06 05:00:45;;;;;;;40.72;23.35;;;;;;;;;;6212061;23;20016;-67
2022/06/06 05:03:13;;;;;;;42.87;24.73;;;;;;;;;;6204703;23;20056;-67
2022/06/06 05:05:48;;;;;;;39.00;22.42;;;;;;;;;;6203865;23;20265;-67
2022/06/06 05:08:34;;;;;;;43.08;24.52;;;;;;;;;;6207194;23;20063;-66
2022/06/06 05:11:06;;;;;;;43.88;24.10;;;;;;;;;;6212113;23;20104;-68
2022/06/06 05:13:42;;;;;;;41.83;24.50;;;;;;;;;;6212033;23;20021;-67
2022/06/06 05:16:10;;;;;;;38.28;24.05;;;;;;;;;;6206727;23;20020;-67
2022/06/06 05:18:52;;;;;;;36.97;23.63;;;;;;;;;;6209152;23;20091;-67
2022/06/06 05:21:27;;;;;;;41.55;25.17;;;;;;;;;;6200591;22;20115;-67
2022/06/06 05:24:00;;;;;;;37.22;22.75;;;;;;;;;;6215025;23;20056;-67
2022/06/06 05:26:40;;;;;;;38.65;23.83;;;;;;;;;;6205841;22;20095;-66
2022/06/06 05:29:10;;;;;;;37.25;22.58;;;;;;;;;;6213447;23;20056;-65
2022/06/06 05:31:42;;;;;;;38.72;23.00;;;;;;;;;;6203758;23;20413;-66
2022/06/06 05:34:17;;;;;;;36.58;22.15;;;;;;;;;;6206891;23;20309;-67
2022/06/06 05:37:02;;;;;;;32.17;20.50;;;;;;;;;;6209587;23;20107;-65
2022/06/06 05:39:51;;;;;;;31.30;19.98;;;;;;;;;;6213468;23;20497;-67
2022/06/06 05:42:24;;;;;;;33.28;20.08;;;;;;;;;;6213693;23;20059;-67
2022/06/06 05:44:57;;;;;;;28.50;17.75;;;;;;;;;;6212433;23;20070;-68
2022/06/06 05:47:27;;;;;;;27.48;16.48;;;;;;;;;;6180085;23;20059;-67
2022/06/06 05:50:03;;;;;;;24.42;16.20;;;;;;;;;;6206417;22;20100;-67
2022/06/06 05:52:35;;;;;;;26.10;14.70;;;;;;;;;;6213208;23;20031;-66
2022/06/06 05:55:07;;;;;;;21.08;13.43;;;;;;;;;;6205576;22;20470;-67
2022/06/06 05:57:39;;;;;;;18.92;11.35;;;;;;;;;;6213491;23;20060;-66
2022/06/06 06:00:10;;;;;;;20.73;12.50;;;;;;;;;;6200690;23;20024;-67
2022/06/06 06:02:55;;;;;;;16.60;8.95;;;;;;;;;;6212249;23;20046;-67
2022/06/06 06:05:41;;;;;;;14.70;9.30;;;;;;;;;;6206119;22;20052;-67
2022/06/06 06:08:26;;;;;;;14.48;9.02;;;;;;;;;;6187014;23;20072;-67
2022/06/06 06:11:04;;;;;;;13.20;8.63;;;;;;;;;;6206378;22;20070;-67
2022/06/06 06:13:43;;;;;;;15.35;9.98;;;;;;;;;;6205619;23;20087;-67
2022/06/06 06:16:11;;;;;;;14.68;10.38;;;;;;;;;;6212662;23;20086;-69
2022/06/06 06:18:41;;;;;;;16.02;10.65;;;;;;;;;;6205118;23;20025;-67
2022/06/06 06:21:10;;;;;;;19.95;11.23;;;;;;;;;;6213222;23;20115;-67
2022/06/06 06:23:39;;;;;;;18.40;11.85;;;;;;;;;;6205866;23;20419;-67
2022/06/06 06:26:06;;;;;;;20.48;12.85;;;;;;;;;;6207250;23;20241;-67
2022/06/06 06:28:34;;;;;;;17.48;12.27;;;;;;;;;;6205074;22;20028;-67
2022/06/06 06:31:04;;;;;;;19.67;13.32;;;;;;;;;;6213730;23;20132;-68
2022/06/06 06:33:41;;;;;;;22.70;13.98;;;;;;;;;;6209924;23;20350;-68
2022/06/06 06:36:16;;;;;;;22.63;14.50;;;;;;;;;;6212341;23;20087;-67
2022/06/06 06:38:55;;;;;;;19.52;14.02;;;;;;;;;;6207841;23;20032;-68
2022/06/06 06:41:33;;;;;;;23.45;14.32;;;;;;;;;;6199918;23;20112;-67
2022/06/06 06:44:00;;;;;;;19.65;12.85;;;;;;;;;;6186336;23;20056;-67
2022/06/06 06:46:32;;;;;;;15.15;10.70;;;;;;;;;;6205839;22;20020;-67
2022/06/06 06:49:16;;;;;;;15.43;9.90;;;;;;;;;;6213656;23;20020;-68
2022/06/06 06:51:49;;;;;;;15.68;9.15;;;;;;;;;;6178602;23;20035;-67
2022/06/06 06:54:34;;;;;;;15.10;8.23;;;;;;;;;;6205376;23;20021;-68
2022/06/06 06:57:00;;;;;;;13.30;7.43;;;;;;;;;;6206663;23;20533;-67
2022/06/06 06:59:42;;;;;;;11.95;7.65;;;;;;;;;;6212544;23;20024;-67
2022/06/06 07:10:37;;;;;;;13.18;9.20;;;;;;;;;;6211336;23;20103;-67
2022/06/06 07:13:07;;;;;;;12.82;8.43;;;;;;;;;;6212384;23;20313;-67
2022/06/06 07:15:45;;;;;;;13.20;9.55;;;;;;;;;;6204419;22;20063;-67
2022/06/06 07:18:15;;;;;;;16.67;9.30;;;;;;;;;;6210873;23;20075;-68
2022/06/06 07:20:43;;;;;;;12.50;9.90;;;;;;;;;;6199067;23;20044;-66
2022/06/06 07:23:11;;;;;;;;;;;;;;;;;;6207208;23;20520;-67
2022/06/06 07:25:39;;;;;;;11.07;8.65;;;;;;;;;;6204122;23;19991;-67
2022/06/06 07:28:11;;;;;;;11.80;9.02;;;;;;;;;;6212664;23;20095;-67
2022/06/06 07:30:43;;;;;;;10.68;8.60;;;;;;;;;;6177698;23;20094;-66
2022/06/06 07:33:22;;;;;;;11.60;8.48;;;;;;;;;;6211502;23;20099;-67
2022/06/06 07:36:08;;;;;;;13.15;8.15;;;;;;;;;;6204363;23;20067;-66
2022/06/06 07:38:40;;;;;;;10.63;7.25;;;;;;;;;;6208897;23;20025;-67
2022/06/06 07:41:19;;;;;;;11.07;6.50;;;;;;;;;;6211618;23;20060;-67
2022/06/06 07:43:46;;;;;;;13.13;6.03;;;;;;;;;;6203681;23;20104;-66
2022/06/06 07:46:25;;;;;;;9.27;6.55;;;;;;;;;;6211098;23;20103;-67
2022/06/06 07:48:51;;;;;;;;;;;;;;;;;;6203218;22;20060;-68
2022/06/06 07:51:27;;;;;;;10.93;6.80;;;;;;;;;;6212094;23;20006;-67
2022/06/06 07:53:57;;;;;;;9.55;5.45;;;;;;;;;;6203433;23;20103;-67
2022/06/06 07:56:32;;;;;;;7.00;4.95;;;;;;;;;;6211631;23;20096;-67
2022/06/06 07:59:36;;;;;;;9.63;4.55;;;;;;;;;;6200178;22;20342;-68
2022/06/06 08:02:14;;;;;;;6.30;3.25;;;;;;;;;;6113304;23;20114;-66
2022/06/06 08:04:51;;;;;;;6.40;2.95;;;;;;;;;;6112630;23;20097;-66
2022/06/06 08:07:28;;;;;;;5.35;2.50;;;;;;;;;;6119517;23;20029;-66
2022/06/06 08:10:30;;;;;;;6.05;2.65;;;;;;;;;;6119163;23;20050;-66
2022/06/06 08:13:19;;;;;;;3.72;2.10;;;;;;;;;;5998835;23;20027;-68
2022/06/06 08:15:45;;;;;;;5.85;2.30;;;;;;;;;;5997986;23;20207;-68
2022/06/06 08:18:26;;;;;;;4.88;2.67;;;;;;;;;;5995219;23;20067;-67
2022/06/06 08:21:11;;;;;;;5.85;3.55;;;;;;;;;;6003879;23;20079;-67
2022/06/06 08:23:39;;;;;;;6.88;4.47;;;;;;;;;;5996149;23;20055;-67
2022/06/06 08:26:07;;;;;;;7.05;4.40;;;;;;;;;;6002752;23;20028;-67
2022/06/06 08:28:36;;;;;;;8.80;4.20;;;;;;;;;;5987574;23;20051;-67
2022/06/06 08:31:04;;;;;;;9.27;4.35;;;;;;;;;;6003859;23;20251;-67
2022/06/06 08:33:31;;;;;;;7.28;4.05;;;;;;;;;;5996226;23;20090;-67
2022/06/06 08:36:00;;;;;;;6.28;3.67;;;;;;;;;;6028749;23;20034;-67
2022/06/06 08:38:35;;;;;;;6.68;3.70;;;;;;;;;;6060493;23;20054;-68
2022/06/06 08:41:10;;;;;;;5.70;3.50;;;;;;;;;;6053083;23;20360;-67
2022/06/06 08:43:36;;;;;;;6.20;4.60;;;;;;;;;;6054691;23;20553;-67
2022/06/06 08:46:18;;;;;;;4.07;3.53;;;;;;;;;;6069693;23;20078;-68
2022/06/06 08:48:44;;;;;;;4.38;3.17;;;;;;;;;;6211318;23;20052;-68
2022/06/06 08:51:22;;;;;;;5.15;2.90;;;;;;;;;;6203938;23;20176;-67
2022/06/06 08:53:49;;;;;;;;;;;;;;;;;;6212756;23;20056;-68
2022/06/06 08:56:24;;;;;;;4.50;2.50;;;;;;;;;;6197509;22;19990;-68
2022/06/06 08:58:51;;;;;;;5.80;2.42;;;;;;;;;;6211246;23;20028;-68
2022/06/06 09:01:36;;;;;;;8.52;2.72;;;;;;;;;;6206256;22;20060;-68
2022/06/06 09:04:38;;;;;;;5.28;2.60;;;;;;;;;;6212628;23;20020;-67
2022/06/06 09:07:23;;;;;;;5.30;2.55;;;;;;;;;;6207717;23;20604;-68
2022/06/06 09:10:08;;;;;;;6.93;2.90;;;;;;;;;;6207382;23;20108;-67
2022/06/06 09:12:57;;;;;;;3.97;2.40;;;;;;;;;;6208364;23;20103;-68
2022/06/06 09:15:39;;;;;;;4.63;2.40;;;;;;;;;;6212584;23;20131;-67
2022/06/06 09:18:05;;;;;;;3.78;2.00;;;;;;;;;;6212912;23;20035;-68
2022/06/06 09:20:51;;;;;;;3.40;2.05;;;;;;;;;;6206008;23;20111;-68
2022/06/06 09:23:38;;;;;;;9.70;1.90;;;;;;;;;;6180253;23;20103;-67
2022/06/06 09:26:25;;;;;;;5.22;1.95;;;;;;;;;;6183006;23;20017;-68
2022/06/06 09:28:57;;;;;;;3.65;1.70;;;;;;;;;;6212489;23;20105;-68
2022/06/06 09:31:42;;;;;;;5.07;1.95;;;;;;;;;;6204091;22;20111;-68
2022/06/06 09:34:27;;;;;;;3.50;1.90;;;;;;;;;;6211604;23;20056;-67
2022/06/06 09:36:57;;;;;;;3.58;1.75;;;;;;;;;;6199806;23;20111;-67
2022/06/06 09:39:34;;;;;;;6.38;2.10;;;;;;;;;;6206721;23;20103;-67
2022/06/06 09:42:06;;;;;;;7.13;2.00;;;;;;;;;;6204427;23;20106;-68
2022/06/06 09:44:57;;;;;;;5.35;2.17;;;;;;;;;;6213236;23;20056;-67
2022/06/06 09:47:42;;;;;;;4.00;1.95;;;;;;;;;;6205484;22;20052;-68
2022/06/06 09:50:20;;;;;;;5.57;2.60;;;;;;;;;;6210881;23;20064;-67
2022/06/06 09:52:46;;;;;;;;;;;;;;;;;;6197469;23;20103;-68
2022/06/06 09:59:03;;;;;;;3.67;2.30;;;;;;;;;;6201455;22;20025;-68
2022/06/06 10:01:29;;;;;;;3.25;2.40;;;;;;;;;;6203698;23;20421;-67
2022/06/06 10:04:24;;;;;;;3.25;2.85;;;;;;;;;;6206259;23;20335;-67
2022/06/06 10:07:14;;;;;;;5.13;2.55;;;;;;;;;;6205150;23;20048;-67
2022/06/06 10:10:01;;;;;;;4.28;2.50;;;;;;;;;;6206166;22;20036;-67
2022/06/06 10:12:50;;;;;;;6.03;2.70;;;;;;;;;;6212900;23;20442;-68
2022/06/06 10:15:22;;;;;;;3.42;2.20;;;;;;;;;;6205237;23;20028;-67
2022/06/06 10:18:01;;;;;;;2.92;2.20;;;;;;;;;;6211688;23;20056;-68
2022/06/06 10:20:55;;;;;;;3.47;2.33;;;;;;;;;;6202248;23;20028;-67
2022/06/06 10:23:30;;;;;;;4.63;2.28;;;;;;;;;;6210771;23;20051;-67
2022/06/06 10:26:11;;;;;;;4.28;2.28;;;;;;;;;;6212014;23;20067;-68
2022/06/06 10:28:51;;;;;;;4.35;2.42;;;;;;;;;;6204584;23;20069;-68
2022/06/06 10:31:32;;;;;;;4.05;2.10;;;;;;;;;;6212183;23;20070;-67
2022/06/06 10:33:59;;;;;;;4.07;2.30;;;;;;;;;;6196824;23;20024;-66
2022/06/06 10:36:25;;;;;;;2.90;2.17;;;;;;;;;;6211341;23;20496;-67
2022/06/06 10:39:01;;;;;;;4.43;2.92;;;;;;;;;;6204952;23;20035;-68
2022/06/06 10:41:46;;;;;;;4.22;3.05;;;;;;;;;;6212212;23;20016;-67
2022/06/06 10:44:31;;;;;;;7.05;3.15;;;;;;;;;;6204446;23;20071;-67
2022/06/06 10:47:16;;;;;;;5.30;3.10;;;;;;;;;;6206433;23;20060;-68
2022/06/06 10:49:58;;;;;;;5.53;3.53;;;;;;;;;;6201110;23;20044;-67
2022/06/06 10:52:36;;;;;;;9.02;3.67;;;;;;;;;;6212259;23;20059;-67
2022/06/06 10:55:22;;;;;;;5.93;3.38;;;;;;;;;;6207805;23;20400;-68
2022/06/06 10:57:57;;;;;;;5.45;3.53;;;;;;;;;;6211461;23;20091;-68
2022/06/06 11:00:36;;;;;;;7.30;3.60;;;;;;;;;;6207529;23;20052;-67
2022/06/06 11:03:21;;;;;;;6.30;3.80;;;;;;;;;;6200579;23;20093;-67
2022/06/06 11:06:06;;;;;;;9.43;3.40;;;;;;;;;;6212372;23;20096;-68
2022/06/06 11:08:51;;;;;;;8.50;3.65;;;;;;;;;;6204677;23;20056;-67
2022/06/06 11:11:30;;;;;;;7.22;4.07;;;;;;;;;;6211374;23;20505;-66
2022/06/06 11:14:02;;;;;;;7.22;4.22;;;;;;;;;;6197034;22;20091;-68
2022/06/06 11:16:47;;;;;;;6.10;4.10;;;;;;;;;;6205181;23;20513;-67
2022/06/06 11:19:23;;;;;;;6.88;4.53;;;;;;;;;;6203732;23;20377;-67
2022/06/06 11:22:08;;;;;;;8.38;5.50;;;;;;;;;;6211629;23;20060;-67
2022/06/06 11:24:38;;;;;;;9.10;5.32;;;;;;;;;;6203022;22;20094;-68
2022/06/06 11:27:12;;;;;;;7.15;4.13;;;;;;;;;;6208936;23;20078;-66
2022/06/06 11:29:47;;;;;;;5.93;4.20;;;;;;;;;;6198280;23;20043;-67
2022/06/06 11:32:17;;;;;;;8.55;4.25;;;;;;;;;;6212404;23;20021;-67
2022/06/06 11:34:57;;;;;;;4.68;3.20;;;;;;;;;;6212398;23;20060;-68
2022/06/06 11:37:52;;;;;;;6.03;3.28;;;;;;;;;;6203998;23;20101;-67
2022/06/06 11:40:40;;;;;;;5.65;4.28;;;;;;;;;;6205961;23;20413;-67
2022/06/06 11:43:25;;;;;;;7.03;3.37;;;;;;;;;;6197941;23;20020;-68
2022/06/06 11:46:13;;;;;;;4.72;2.88;;;;;;;;;;6211790;23;20091;-67
2022/06/06 11:49:09;;;;;;;4.15;2.60;;;;;;;;;;6204561;23;20592;-69
2022/06/06 11:51:49;;;;;;;4.32;2.40;;;;;;;;;;6192256;23;20091;-70
2022/06/06 11:54:35;;;;;;;3.75;2.20;;;;;;;;;;6198083;23;20025;-68
2022/06/06 11:57:20;;;;;;;6.47;2.22;;;;;;;;;;6205723;23;20816;-67
2022/06/06 11:59:48;;;;;;;2.75;1.92;;;;;;;;;;6203979;23;20107;-67
2022/06/06 12:02:15;;;;;;;;;;;;;;;;;;6211575;23;20047;-67
2022/06/06 12:04:41;;;;;;;3.65;1.80;;;;;;;;;;6203257;22;19919;-67
2022/06/06 12:07:13;;;;;;;3.72;1.92;;;;;;;;;;6211679;23;20020;-68
2022/06/06 12:09:52;;;;;;;3.22;1.60;;;;;;;;;;6195873;23;20644;-68
2022/06/06 12:12:37;;;;;;;4.28;1.88;;;;;;;;;;6211365;23;20486;-68
2022/06/06 12:15:16;;;;;;;4.63;1.90;;;;;;;;;;6212534;23;20104;-67
2022/06/06 12:18:02;;;;;;;4.22;1.90;;;;;;;;;;6210881;23;20051;-67
2022/06/06 12:20:47;;;;;;;3.47;1.73;;;;;;;;;;6211748;23;20350;-67
2022/06/06 12:23:14;;;;;;;1.73;1.45;;;;;;;;;;6195923;23;20060;-69
2022/06/06 12:25:47;;;;;;;3.10;1.55;;;;;;;;;;6211958;23;20040;-67
2022/06/06 12:28:26;;;;;;;2.70;1.60;;;;;;;;;;6177643;23;20025;-67
2022/06/06 12:31:11;;;;;;;3.15;1.60;;;;;;;;;;6211198;23;20053;-68
2022/06/06 12:33:41;;;;;;;3.13;1.55;;;;;;;;;;6204931;23;20039;-67
2022/06/06 12:36:15;;;;;;;3.80;1.70;;;;;;;;;;6206321;23;20021;-67
2022/06/06 12:38:49;;;;;;;5.38;1.70;;;;;;;;;;6198836;23;20484;-69
2022/06/06 12:41:34;;;;;;;3.53;1.80;;;;;;;;;;6211546;23;20025;-67
2022/06/06 12:44:04;;;;;;;10.90;2.05;;;;;;;;;;6205376;23;20059;-68
2022/06/06 12:46:34;;;;;;;4.60;2.47;;;;;;;;;;6211413;23;20047;-68
2022/06/06 12:49:05;;;;;;;3.25;2.72;;;;;;;;;;6207537;23;20056;-68
2022/06/06 12:51:43;;;;;;;4.90;3.10;;;;;;;;;;6172333;23;20521;-67
2022/06/06 12:54:24;;;;;;;5.20;3.35;;;;;;;;;;6211021;23;20024;-67
2022/06/06 12:56:55;;;;;;;5.90;2.85;;;;;;;;;;6201502;23;20032;-67
2022/06/06 12:59:21;;;;;;;5.00;3.28;;;;;;;;;;6211383;23;20028;-68
2022/06/06 13:02:00;;;;;;;4.28;2.83;;;;;;;;;;6202581;22;20028;-68
2022/06/06 13:04:46;;;;;;;4.15;2.90;;;;;;;;;;6205742;23;20347;-69
2022/06/06 13:07:31;;;;;;;5.25;2.75;;;;;;;;;;6201470;23;20086;-68
2022/06/06 13:10:02;;;;;;;7.57;3.20;;;;;;;;;;6211996;23;20340;-68
2022/06/06 13:12:31;;;;;;;3.53;2.45;;;;;;;;;;6205962;22;20051;-68
2022/06/06 13:15:11;;;;;;;4.00;2.40;;;;;;;;;;6211735;23;20025;-68
2022/06/06 13:17:56;;;;;;;2.72;2.03;;;;;;;;;;6206711;23;20055;-67
2022/06/06 13:20:34;;;;;;;3.40;2.00;;;;;;;;;;6204465;23;20100;-68
2022/06/06 13:23:11;;;;;;;3.38;1.80;;;;;;;;;;6212792;23;20099;-68
2022/06/06 13:25:44;;;;;;;4.65;1.60;;;;;;;;;;6205168;23;20052;-68
2022/06/06 13:28:12;;;;;;;4.93;1.52;;;;;;;;;;6211683;23;20048;-68
2022/06/06 13:30:53;;;;;;;2.63;1.38;;;;;;;;;;6202651;23;20023;-67
2022/06/06 13:33:46;;;;;;;4.18;1.40;;;;;;;;;;6207325;23;20025;-67
2022/06/06 13:36:33;;;;;;;4.93;1.50;;;;;;;;;;6168462;23;20021;-67
2022/06/06 13:39:06;;;;;;;3.10;1.83;;;;;;;;;;6182049;23;20055;-67
2022/06/06 13:41:46;;;;;;;2.80;1.50;;;;;;;;;;6206396;22;20124;-67
2022/06/06 13:44:29;;;;;;;3.30;1.65;;;;;;;;;;6208421;23;20048;-67
2022/06/06 13:47:01;;;;;;;4.55;1.67;;;;;;;;;;6200180;22;20024;-67
2022/06/06 13:49:28;;;;;;;3.33;1.33;;;;;;;;;;6186455;23;20466;-68
2022/06/06 13:52:05;;;;;;;3.78;2.00;;;;;;;;;;6213753;23;20147;-67
2022/06/06 13:54:33;;;;;;;4.05;1.70;;;;;;;;;;6204563;23;20060;-67
2022/06/06 13:57:15;;;;;;;3.30;1.63;;;;;;;;;;6212333;23;20056;-67
2022/06/06 14:00:01;;;;;;;4.60;1.60;;;;;;;;;;6197930;23;20330;-67
2022/06/06 14:02:34;;;;;;;5.10;1.70;;;;;;;;;;6212394;23;20108;-68
2022/06/06 14:05:19;;;;;;;5.38;1.92;;;;;;;;;;6205487;23;20107;-68
2022/06/06 14:07:57;;;;;;;2.38;1.70;;;;;;;;;;6213342;23;20063;-67
2022/06/06 14:10:33;;;;;;;4.63;2.00;;;;;;;;;;6205364;22;20058;-67
2022/06/06 14:13:18;;;;;;;4.47;2.63;;;;;;;;;;6180345;23;20410;-68
2022/06/06 14:15:46;;;;;;;3.42;1.70;;;;;;;;;;6203994;22;20072;-68
2022/06/06 14:18:17;;;;;;;4.68;2.17;;;;;;;;;;6212640;23;20104;-69
2022/06/06 14:20:49;;;;;;;7.70;2.00;;;;;;;;;;6213178;23;20103;-67
2022/06/06 14:23:18;;;;;;;4.20;1.98;;;;;;;;;;6205118;23;20083;-67
2022/06/06 14:25:45;;;;;;;5.45;2.03;;;;;;;;;;6207550;23;20063;-67
2022/06/06 14:28:20;;;;;;;5.70;2.55;;;;;;;;;;6204049;23;20028;-67
2022/06/06 14:30:47;;;;;;;6.93;2.60;;;;;;;;;;6214039;23;20096;-68
2022/06/06 14:33:24;;;;;;;5.43;2.75;;;;;;;;;;6206762;23;20458;-68
2022/06/06 14:35:51;;;;;;;2.87;2.50;;;;;;;;;;6213654;23;20028;-68
2022/06/06 14:38:24;;;;;;;5.47;2.10;;;;;;;;;;6200118;23;20437;-68
2022/06/06 14:40:53;;;;;;;3.53;2.60;;;;;;;;;;6206598;23;20565;-67
2022/06/06 14:43:21;;;;;;;3.55;2.40;;;;;;;;;;6212074;23;20099;-67
2022/06/06 14:45:52;;;;;;;3.83;2.10;;;;;;;;;;6203217;22;20084;-68
2022/06/06 14:48:30;;;;;;;5.68;2.20;;;;;;;;;;6212169;23;20032;-67
2022/06/06 14:50:58;;;;;;;4.18;2.47;;;;;;;;;;6204678;23;20060;-67
2022/06/06 14:53:33;;;;;;;5.45;2.50;;;;;;;;;;6205867;23;20524;-68
2022/06/06 14:56:05;;;;;;;4.55;2.35;;;;;;;;;;6202938;22;20087;-67
2022/06/06 14:58:32;;;;;;;6.07;2.10;;;;;;;;;;6211868;23;20027;-67
2022/06/06 15:01:03;;;;;;;3.65;1.90;;;;;;;;;;6205023;23;20782;-68
2022/06/06 15:03:40;;;;;;;4.50;2.33;;;;;;;;;;6212696;23;20048;-67
2022/06/06 15:06:08;;;;;;;5.88;2.40;;;;;;;;;;6207611;23;20021;-67
2022/06/06 15:08:48;;;;;;;3.67;2.60;;;;;;;;;;6204311;23;20021;-66
2022/06/06 15:11:18;;;;;;;4.95;2.80;;;;;;;;;;6212594;23;20055;-67
2022/06/06 15:13:46;;;;;;;4.95;2.97;;;;;;;;;;6206183;22;20479;-67
2022/06/06 15:16:13;;;;;;;6.20;4.25;;;;;;;;;;6212352;23;20063;-67
2022/06/06 15:18:42;;;;;;;5.05;3.58;;;;;;;;;;6203454;22;20020;-67
2022/06/06 15:21:09;;;;;;;5.00;3.05;;;;;;;;;;6207063;23;20099;-67
2022/06/06 15:23:38;;;;;;;4.28;3.47;;;;;;;;;;6200667;22;20096;-66
2022/06/06 15:26:11;;;;;;;4.50;3.33;;;;;;;;;;6212876;23;20033;-67
2022/06/06 15:29:12;;;;;;;7.03;3.40;;;;;;;;;;6211900;23;20338;-66
2022/06/06 15:31:44;;;;;;;6.85;3.50;;;;;;;;;;6211501;23;20036;-67
2022/06/06 15:34:20;;;;;;;6.30;3.70;;;;;;;;;;6206215;23;20020;-67
2022/06/06 15:36:55;;;;;;;7.13;3.67;;;;;;;;;;6198710;23;20095;-67